sensor_id;sensor_type;location;lat;lon;timestamp;pressure;altitude;pressure_sealevel;temperature
27826;BMP280;15077;49.704;9.908;2023-10-09T00:02:10;98707.91;;;19.26
27826;BMP280;15077;49.704;9.908;2023-10-09T00:04:37;98712.25;;;19.25
27826;BMP280;15077;49.704;9.908;2023-10-09T00:07:07;98709.78;;;19.24
27826;BMP280;15077;49.704;9.908;2023-10-09T00:09:37;98702.06;;;19.24
27826;BMP280;15077;49.704;9.908;2023-10-09T00:12:15;98702.16;;;19.22
27826;BMP280;15077;49.704;9.908;2023-10-09T00:14:42;98686.84;;;19.21
27826;BMP280;15077;49.704;9.908;2023-10-09T00:17:17;98684.38;;;19.19
27826;BMP280;15077;49.704;9.908;2023-10-09T00:19:45;98687.06;;;19.18
27826;BMP280;15077;49.704;9.908;2023-10-09T00:22:14;98685.41;;;19.17
27826;BMP280;15077;49.704;9.908;2023-10-09T00:25:08;98688.22;;;19.00
27826;BMP280;15077;49.704;9.908;2023-10-09T00:27:43;98682.50;;;19.09
27826;BMP280;15077;49.704;9.908;2023-10-09T00:30:15;98682.50;;;19.09
27826;BMP280;15077;49.704;9.908;2023-10-09T00:32:46;98675.50;;;19.11
27826;BMP280;15077;49.704;9.908;2023-10-09T00:35:29;98670.56;;;19.08
27826;BMP280;15077;49.704;9.908;2023-10-09T00:38:20;98668.84;;;19.08
27826;BMP280;15077;49.704;9.908;2023-10-09T00:40:47;98660.31;;;19.08
27826;BMP280;15077;49.704;9.908;2023-10-09T00:43:16;98660.31;;;19.08
27826;BMP280;15077;49.704;9.908;2023-10-09T00:45:46;98662.97;;;19.06
27826;BMP280;15077;49.704;9.908;2023-10-09T00:48:13;98663.81;;;19.07
27826;BMP280;15077;49.704;9.908;2023-10-09T00:50:49;98660.41;;;19.06
27826;BMP280;15077;49.704;9.908;2023-10-09T00:53:21;98658.69;;;19.07
27826;BMP280;15077;49.704;9.908;2023-10-09T00:55:59;98659.59;;;19.06
27826;BMP280;15077;49.704;9.908;2023-10-09T00:58:37;98655.38;;;19.05
27826;BMP280;15077;49.704;9.908;2023-10-09T01:01:03;98646.84;;;19.04
27826;BMP280;15077;49.704;9.908;2023-10-09T01:03:30;98633.19;;;19.04
27826;BMP280;15077;49.704;9.908;2023-10-09T01:06:02;98624.53;;;19.05
27826;BMP280;15077;49.704;9.908;2023-10-09T01:08:31;98624.63;;;19.03
27826;BMP280;15077;49.704;9.908;2023-10-09T01:11:00;98621.16;;;19.04
27826;BMP280;15077;49.704;9.908;2023-10-09T01:13:40;98617.78;;;19.04
27826;BMP280;15077;49.704;9.908;2023-10-09T01:16:12;98610.16;;;19.02
27826;BMP280;15077;49.704;9.908;2023-10-09T01:18:47;98613.53;;;19.03
27826;BMP280;15077;49.704;9.908;2023-10-09T01:21:18;98606.75;;;19.02
27826;BMP280;15077;49.704;9.908;2023-10-09T01:23:49;98603.34;;;19.01
27826;BMP280;15077;49.704;9.908;2023-10-09T01:26:39;98597.59;;;18.98
27826;BMP280;15077;49.704;9.908;2023-10-09T01:29:14;98589.13;;;18.96
27826;BMP280;15077;49.704;9.908;2023-10-09T01:31:53;98595.31;;;18.94
27826;BMP280;15077;49.704;9.908;2023-10-09T01:34:28;98594.59;;;18.92
27826;BMP280;15077;49.704;9.908;2023-10-09T01:37:16;98595.63;;;18.89
27826;BMP280;15077;49.704;9.908;2023-10-09T01:39:53;98593.06;;;18.89
27826;BMP280;15077;49.704;9.908;2023-10-09T01:42:20;98591.41;;;18.88
27826;BMP280;15077;49.704;9.908;2023-10-09T01:44:57;98586.25;;;18.88
27826;BMP280;15077;49.704;9.908;2023-10-09T01:47:41;98582.84;;;18.88
27826;BMP280;15077;49.704;9.908;2023-10-09T01:50:11;98575.16;;;18.88
27826;BMP280;15077;49.704;9.908;2023-10-09T01:52:46;98570.84;;;18.88
27826;BMP280;15077;49.704;9.908;2023-10-09T01:55:12;98561.50;;;18.87
27826;BMP280;15077;49.704;9.908;2023-10-09T01:57:54;98560.97;;;18.82
27826;BMP280;15077;49.704;9.908;2023-10-09T02:00:29;98550.06;;;18.79
27826;BMP280;15077;49.704;9.908;2023-10-09T02:02:56;98556.47;;;18.73
27826;BMP280;15077;49.704;9.908;2023-10-09T02:05:25;98556.56;;;18.72
27826;BMP280;15077;49.704;9.908;2023-10-09T02:07:52;98554.09;;;18.70
27826;BMP280;15077;49.704;9.908;2023-10-09T02:10:22;98550.69;;;18.70
27826;BMP280;15077;49.704;9.908;2023-10-09T02:13:02;98549.88;;;18.69
27826;BMP280;15077;49.704;9.908;2023-10-09T02:15:39;98549.16;;;18.67
27826;BMP280;15077;49.704;9.908;2023-10-09T02:18:16;98556.66;;;18.70
27826;BMP280;15077;49.704;9.908;2023-10-09T02:23:35;98554.81;;;18.72
27826;BMP280;15077;49.704;9.908;2023-10-09T02:26:14;98556.56;;;18.72
27826;BMP280;15077;49.704;9.908;2023-10-09T02:29:07;98554.00;;;18.72
27826;BMP280;15077;49.704;9.908;2023-10-09T02:31:39;98549.66;;;18.72
27826;BMP280;15077;49.704;9.908;2023-10-09T02:34:17;98549.47;;;18.75
27826;BMP280;15077;49.704;9.908;2023-10-09T02:36:52;98548.56;;;18.76
27826;BMP280;15077;49.704;9.908;2023-10-09T02:39:31;98551.13;;;18.76
27826;BMP280;15077;49.704;9.908;2023-10-09T02:42:02;98545.97;;;18.76
27826;BMP280;15077;49.704;9.908;2023-10-09T02:44:50;98545.97;;;18.76
27826;BMP280;15077;49.704;9.908;2023-10-09T02:47:20;98549.25;;;18.78
27826;BMP280;15077;49.704;9.908;2023-10-09T02:49:51;98564.47;;;18.81
27826;BMP280;15077;49.704;9.908;2023-10-09T02:52:18;98560.97;;;18.82
27826;BMP280;15077;49.704;9.908;2023-10-09T02:54:56;98569.50;;;18.83
27826;BMP280;15077;49.704;9.908;2023-10-09T02:57:28;98562.81;;;18.80
27826;BMP280;15077;49.704;9.908;2023-10-09T03:00:06;98569.09;;;18.76
27826;BMP280;15077;49.704;9.908;2023-10-09T03:02:44;98566.72;;;18.73
27826;BMP280;15077;49.704;9.908;2023-10-09T03:05:11;98565.88;;;18.73
27826;BMP280;15077;49.704;9.908;2023-10-09T03:07:38;98565.97;;;18.71
27826;BMP280;15077;49.704;9.908;2023-10-09T03:10:07;98563.41;;;18.71
27826;BMP280;15077;49.704;9.908;2023-10-09T03:12:35;98571.22;;;18.70
27826;BMP280;15077;49.704;9.908;2023-10-09T03:15:03;98567.84;;;18.69
27826;BMP280;15077;49.704;9.908;2023-10-09T03:17:33;98563.63;;;18.68
27826;BMP280;15077;49.704;9.908;2023-10-09T03:20:06;98562.81;;;18.68
27826;BMP280;15077;49.704;9.908;2023-10-09T03:22:41;98548.41;;;18.65
27826;BMP280;15077;49.704;9.908;2023-10-09T03:25:08;98556.22;;;18.64
27826;BMP280;15077;49.704;9.908;2023-10-09T03:27:41;98561.44;;;18.62
27826;BMP280;15077;49.704;9.908;2023-10-09T03:30:15;98560.63;;;18.62
27826;BMP280;15077;49.704;9.908;2023-10-09T03:32:45;98556.41;;;18.61
27826;BMP280;15077;49.704;9.908;2023-10-09T03:35:21;98562.59;;;18.58
27826;BMP280;15077;49.704;9.908;2023-10-09T03:37:56;98563.50;;;18.57
27826;BMP280;15077;49.704;9.908;2023-10-09T03:40:48;98565.47;;;18.54
27826;BMP280;15077;49.704;9.908;2023-10-09T03:43:14;98565.47;;;18.54
27826;BMP280;15077;49.704;9.908;2023-10-09T03:45:49;98567.28;;;18.52
27826;BMP280;15077;49.704;9.908;2023-10-09T03:48:25;98567.38;;;18.50
27826;BMP280;15077;49.704;9.908;2023-10-09T03:51:02;98558.06;;;18.49
27826;BMP280;15077;49.704;9.908;2023-10-09T03:53:41;98562.53;;;18.46
27826;BMP280;15077;49.704;9.908;2023-10-09T03:56:19;98559.06;;;18.47
27826;BMP280;15077;49.704;9.908;2023-10-09T03:58:56;98558.34;;;18.45
27826;BMP280;15077;49.704;9.908;2023-10-09T04:01:44;98564.59;;;18.41
27826;BMP280;15077;49.704;9.908;2023-10-09T04:04:25;98558.44;;;18.44
27826;BMP280;15077;49.704;9.908;2023-10-09T04:07:14;98544.06;;;18.41
27826;BMP280;15077;49.704;9.908;2023-10-09T04:09:55;98530.50;;;18.39
27826;BMP280;15077;49.704;9.908;2023-10-09T04:12:48;98519.31;;;18.40
27826;BMP280;15077;49.704;9.908;2023-10-09T04:15:24;98515.09;;;18.39
27826;BMP280;15077;49.704;9.908;2023-10-09T04:18:30;98516.31;;;18.34
27826;BMP280;15077;49.704;9.908;2023-10-09T04:21:10;98507.88;;;18.32
27826;BMP280;15077;49.704;9.908;2023-10-09T04:24:02;98515.69;;;18.30
27826;BMP280;15077;49.704;9.908;2023-10-09T04:26:48;98516.53;;;18.31
27826;BMP280;15077;49.704;9.908;2023-10-09T04:29:31;98513.75;;;18.34
27826;BMP280;15077;49.704;9.908;2023-10-09T04:32:10;98517.03;;;18.36
27826;BMP280;15077;49.704;9.908;2023-10-09T04:34:53;98516.13;;;18.37
27826;BMP280;15077;49.704;9.908;2023-10-09T04:37:46;98523.09;;;18.35
27826;BMP280;15077;49.704;9.908;2023-10-09T04:40:21;98514.47;;;18.36
27826;BMP280;15077;49.704;9.908;2023-10-09T04:43:23;98509.53;;;18.33
27826;BMP280;15077;49.704;9.908;2023-10-09T04:46:03;98511.19;;;18.34
27826;BMP280;15077;49.704;9.908;2023-10-09T04:48:33;98509.53;;;18.33
27826;BMP280;15077;49.704;9.908;2023-10-09T04:51:13;98512.09;;;18.33
27826;BMP280;15077;49.704;9.908;2023-10-09T04:53:51;98518.44;;;18.15
27826;BMP280;15077;49.704;9.908;2023-10-09T04:56:44;98512.81;;;18.22
27826;BMP280;15077;49.704;9.908;2023-10-09T04:59:34;98512.00;;;18.22
27826;BMP280;15077;49.704;9.908;2023-10-09T05:02:15;98516.28;;;18.21
27826;BMP280;15077;49.704;9.908;2023-10-09T05:04:51;98529.00;;;18.23
27826;BMP280;15077;49.704;9.908;2023-10-09T05:07:47;98532.72;;;18.19
27826;BMP280;15077;49.704;9.908;2023-10-09T05:10:49;98537.00;;;18.18
27826;BMP280;15077;49.704;9.908;2023-10-09T05:16:37;98527.78;;;18.16
27826;BMP280;15077;49.704;9.908;2023-10-09T05:19:30;98519.34;;;18.14
27826;BMP280;15077;49.704;9.908;2023-10-09T05:22:18;98527.03;;;18.14
27826;BMP280;15077;49.704;9.908;2023-10-09T05:25:18;98525.38;;;18.13
27826;BMP280;15077;49.704;9.908;2023-10-09T05:28:07;98529.50;;;18.15
27826;BMP280;15077;49.704;9.908;2023-10-09T05:31:00;98524.72;;;18.23
27826;BMP280;15077;49.704;9.908;2023-10-09T05:33:55;98518.94;;;18.20
27826;BMP280;15077;49.704;9.908;2023-10-09T05:36:56;98514.84;;;18.17
27826;BMP280;15077;49.704;9.908;2023-10-09T05:43:11;98520.59;;;18.21
27826;BMP280;15077;49.704;9.908;2023-10-09T05:46:28;98505.91;;;18.23
27826;BMP280;15077;49.704;9.908;2023-10-09T05:49:26;98520.00;;;18.30
27826;BMP280;15077;49.704;9.908;2023-10-09T05:52:50;98510.56;;;18.30
27826;BMP280;15077;49.704;9.908;2023-10-09T05:56:13;98510.91;;;18.38
27826;BMP280;15077;49.704;9.908;2023-10-09T05:59:36;98517.94;;;18.35
27826;BMP280;15077;49.704;9.908;2023-10-09T06:02:55;98520.41;;;18.36
27826;BMP280;15077;49.704;9.908;2023-10-09T06:06:17;98512.81;;;18.35
27826;BMP280;15077;49.704;9.908;2023-10-09T06:09:49;98521.25;;;18.37
27826;BMP280;15077;49.704;9.908;2023-10-09T06:15:55;98523.94;;;18.48
27826;BMP280;15077;49.704;9.908;2023-10-09T06:18:48;98521.19;;;18.50
27826;BMP280;15077;49.704;9.908;2023-10-09T06:21:32;98523.84;;;18.37
27826;BMP280;15077;49.704;9.908;2023-10-09T06:24:19;98534.00;;;18.50
27826;BMP280;15077;49.704;9.908;2023-10-09T06:27:09;98544.06;;;18.41
27826;BMP280;15077;49.704;9.908;2023-10-09T06:29:43;98546.53;;;18.55
27826;BMP280;15077;49.704;9.908;2023-10-09T06:32:25;98548.63;;;18.62
27826;BMP280;15077;49.704;9.908;2023-10-09T06:35:14;98549.34;;;18.64
27826;BMP280;15077;49.704;9.908;2023-10-09T06:37:58;98542.88;;;18.71
27826;BMP280;15077;49.704;9.908;2023-10-09T06:40:51;98537.75;;;18.71
27826;BMP280;15077;49.704;9.908;2023-10-09T06:43:32;98540.84;;;18.76
27826;BMP280;15077;49.704;9.908;2023-10-09T06:46:02;98535.31;;;18.82
27826;BMP280;15077;49.704;9.908;2023-10-09T06:49:39;98553.38;;;18.81
27826;BMP280;15077;49.704;9.908;2023-10-09T06:52:27;98543.31;;;18.90
27826;BMP280;15077;49.704;9.908;2023-10-09T06:55:13;98549.91;;;18.94
27826;BMP280;15077;49.704;9.908;2023-10-09T06:57:46;98538.72;;;18.95
27826;BMP280;15077;49.704;9.908;2023-10-09T07:00:15;98545.16;;;19.00
27826;BMP280;15077;49.704;9.908;2023-10-09T07:03:09;98547.44;;;19.05
27826;BMP280;15077;49.704;9.908;2023-10-09T07:05:40;98542.94;;;19.08
27826;BMP280;15077;49.704;9.908;2023-10-09T07:08:41;98548.59;;;19.13
27826;BMP280;15077;49.704;9.908;2023-10-09T07:11:23;98565.56;;;19.16
27826;BMP280;15077;49.704;9.908;2023-10-09T07:14:22;98566.16;;;19.19
27826;BMP280;15077;49.704;9.908;2023-10-09T07:16:58;98564.94;;;19.25
27826;BMP280;15077;49.704;9.908;2023-10-09T07:19:30;98569.66;;;19.31
27826;BMP280;15077;49.704;9.908;2023-10-09T07:22:14;98577.34;;;19.18
27826;BMP280;15077;49.704;9.908;2023-10-09T07:24:56;98571.19;;;19.33
27826;BMP280;15077;49.704;9.908;2023-10-09T07:30:21;98568.41;;;19.48
27826;BMP280;15077;49.704;9.908;2023-10-09T07:33:07;98563.06;;;19.51
27826;BMP280;15077;49.704;9.908;2023-10-09T07:38:35;98558.31;;;19.58
27826;BMP280;15077;49.704;9.908;2023-10-09T07:41:05;98563.97;;;19.63
27826;BMP280;15077;49.704;9.908;2023-10-09T07:43:43;98570.41;;;19.68
27826;BMP280;15077;49.704;9.908;2023-10-09T07:46:14;98577.00;;;19.72
27826;BMP280;15077;49.704;9.908;2023-10-09T07:49:04;98567.19;;;19.77
27826;BMP280;15077;49.704;9.908;2023-10-09T07:51:46;98572.06;;;19.82
27826;BMP280;15077;49.704;9.908;2023-10-09T07:57:32;98553.53;;;19.89
27826;BMP280;15077;49.704;9.908;2023-10-09T08:00:10;98562.56;;;19.95
27826;BMP280;15077;49.704;9.908;2023-10-09T08:02:59;98557.19;;;19.97
27826;BMP280;15077;49.704;9.908;2023-10-09T08:05:26;98562.75;;;20.04
27826;BMP280;15077;49.704;9.908;2023-10-09T08:08:00;98565.81;;;20.09
27826;BMP280;15077;49.704;9.908;2023-10-09T08:10:52;98569.72;;;20.14
27826;BMP280;15077;49.704;9.908;2023-10-09T08:13:36;98582.25;;;20.19
27826;BMP280;15077;49.704;9.908;2023-10-09T08:16:31;98586.13;;;20.24
27826;BMP280;15077;49.704;9.908;2023-10-09T08:19:04;98596.81;;;20.31
27826;BMP280;15077;49.704;9.908;2023-10-09T08:21:54;98600.72;;;20.36
27826;BMP280;15077;49.704;9.908;2023-10-09T08:24:39;98591.81;;;20.40
27826;BMP280;15077;49.704;9.908;2023-10-09T08:27:09;98606.03;;;20.45
27826;BMP280;15077;49.704;9.908;2023-10-09T08:30:01;98603.91;;;20.50
27826;BMP280;15077;49.704;9.908;2023-10-09T08:32:40;98595.06;;;20.54
27826;BMP280;15077;49.704;9.908;2023-10-09T08:35:09;98603.38;;;20.58
27826;BMP280;15077;49.704;9.908;2023-10-09T08:37:57;98611.50;;;20.64
27826;BMP280;15077;49.704;9.908;2023-10-09T08:40:40;98616.22;;;20.70
27826;BMP280;15077;49.704;9.908;2023-10-09T08:43:21;98617.66;;;20.74
27826;BMP280;15077;49.704;9.908;2023-10-09T08:45:53;98618.94;;;20.80
27826;BMP280;15077;49.704;9.908;2023-10-09T08:48:29;98626.34;;;20.84
27826;BMP280;15077;49.704;9.908;2023-10-09T08:50:56;98629.44;;;20.89
27826;BMP280;15077;49.704;9.908;2023-10-09T08:53:23;98628.03;;;20.96
27826;BMP280;15077;49.704;9.908;2023-10-09T08:55:50;98625.22;;;20.99
27826;BMP280;15077;49.704;9.908;2023-10-09T08:58:18;98633.44;;;21.04
27826;BMP280;15077;49.704;9.908;2023-10-09T09:00:51;98640.00;;;21.08
27826;BMP280;15077;49.704;9.908;2023-10-09T09:03:19;98647.41;;;21.12
27826;BMP280;15077;49.704;9.908;2023-10-09T09:06:01;98634.28;;;21.15
27826;BMP280;15077;49.704;9.908;2023-10-09T09:08:30;98628.06;;;21.18
27826;BMP280;15077;49.704;9.908;2023-10-09T09:11:10;98639.00;;;21.21
27826;BMP280;15077;49.704;9.908;2023-10-09T09:14:01;98667.47;;;21.20
27826;BMP280;15077;49.704;9.908;2023-10-09T09:16:41;98648.03;;;21.27
27826;BMP280;15077;49.704;9.908;2023-10-09T09:20:17;98651.91;;;21.21
27826;BMP280;15077;49.704;9.908;2023-10-09T09:22:55;98644.28;;;21.31
27826;BMP280;15077;49.704;9.908;2023-10-09T09:25:39;98638.22;;;21.32
27826;BMP280;15077;49.704;9.908;2023-10-09T09:28:10;98647.22;;;21.37
27826;BMP280;15077;49.704;9.908;2023-10-09T09:30:39;98641.13;;;21.38
27826;BMP280;15077;49.704;9.908;2023-10-09T09:33:21;98640.31;;;21.38
27826;BMP280;15077;49.704;9.908;2023-10-09T09:36:07;98647.09;;;21.39
27826;BMP280;15077;49.704;9.908;2023-10-09T09:38:41;98645.13;;;21.42
27826;BMP280;15077;49.704;9.908;2023-10-09T09:41:22;98651.81;;;21.44
27826;BMP280;15077;49.704;9.908;2023-10-09T09:44:10;98640.56;;;21.45
27826;BMP280;15077;49.704;9.908;2023-10-09T09:46:52;98647.16;;;21.49
27826;BMP280;15077;49.704;9.908;2023-10-09T09:49:34;98642.59;;;21.53
27826;BMP280;15077;49.704;9.908;2023-10-09T09:52:04;98633.81;;;21.55
27826;BMP280;15077;49.704;9.908;2023-10-09T09:54:43;98614.78;;;21.56
27826;BMP280;15077;49.704;9.908;2023-10-09T09:57:17;98608.69;;;21.57
27826;BMP280;15077;49.704;9.908;2023-10-09T10:00:10;98600.97;;;21.57
27826;BMP280;15077;49.704;9.908;2023-10-09T10:03:07;98605.88;;;21.60
27826;BMP280;15077;49.704;9.908;2023-10-09T10:06:13;98629.09;;;21.60
27826;BMP280;15077;49.704;9.908;2023-10-09T10:08:44;98620.09;;;21.66
27826;BMP280;15077;49.704;9.908;2023-10-09T10:14:17;98613.66;;;21.71
27826;BMP280;15077;49.704;9.908;2023-10-09T10:17:12;98621.97;;;21.75
27826;BMP280;15077;49.704;9.908;2023-10-09T10:20:19;98630.63;;;21.74
27826;BMP280;15077;49.704;9.908;2023-10-09T10:22:55;98622.66;;;21.77
27826;BMP280;15077;49.704;9.908;2023-10-09T10:25:45;98619.72;;;21.81
27826;BMP280;15077;49.704;9.908;2023-10-09T10:28:38;98623.84;;;21.84
27826;BMP280;15077;49.704;9.908;2023-10-09T10:31:12;98635.69;;;21.86
27826;BMP280;15077;49.704;9.908;2023-10-09T10:36:29;98625.69;;;21.92
27826;BMP280;15077;49.704;9.908;2023-10-09T10:39:10;98612.78;;;21.92
27826;BMP280;15077;49.704;9.908;2023-10-09T10:41:37;98609.16;;;21.95
27826;BMP280;15077;49.704;9.908;2023-10-09T10:44:35;98596.25;;;21.95
27826;BMP280;15077;49.704;9.908;2023-10-09T10:47:15;98593.88;;;22.03
27826;BMP280;15077;49.704;9.908;2023-10-09T10:50:02;98602.19;;;22.06
27826;BMP280;15077;49.704;9.908;2023-10-09T10:53:14;98615.94;;;22.07
27826;BMP280;15077;49.704;9.908;2023-10-09T10:56:01;98615.72;;;22.10
27826;BMP280;15077;49.704;9.908;2023-10-09T10:58:51;98615.22;;;22.16
27826;BMP280;15077;49.704;9.908;2023-10-09T11:01:44;98618.25;;;22.21
27826;BMP280;15077;49.704;9.908;2023-10-09T11:04:27;98633.31;;;22.27
27826;BMP280;15077;49.704;9.908;2023-10-09T11:07:10;98627.66;;;22.33
27826;BMP280;15077;49.704;9.908;2023-10-09T11:10:00;98632.31;;;22.39
27826;BMP280;15077;49.704;9.908;2023-10-09T11:12:42;98648.19;;;22.45
27826;BMP280;15077;49.704;9.908;2023-10-09T11:15:35;98666.16;;;22.46
27826;BMP280;15077;49.704;9.908;2023-10-09T11:18:20;98697.34;;;22.54
27826;BMP280;15077;49.704;9.908;2023-10-09T11:21:00;98698.88;;;22.57
27826;BMP280;15077;49.704;9.908;2023-10-09T11:23:33;98689.00;;;22.62
27826;BMP280;15077;49.704;9.908;2023-10-09T11:26:13;98669.84;;;22.64
27826;BMP280;15077;49.704;9.908;2023-10-09T11:29:21;98640.19;;;22.48
27826;BMP280;15077;49.704;9.908;2023-10-09T11:32:14;98619.34;;;22.60
27826;BMP280;15077;49.704;9.908;2023-10-09T11:34:49;98612.75;;;22.67
27826;BMP280;15077;49.704;9.908;2023-10-09T11:37:31;98611.44;;;22.73
27826;BMP280;15077;49.704;9.908;2023-10-09T11:40:26;98588.63;;;22.78
27826;BMP280;15077;49.704;9.908;2023-10-09T11:43:16;98567.31;;;22.85
27826;BMP280;15077;49.704;9.908;2023-10-09T11:45:42;98531.56;;;22.90
27826;BMP280;15077;49.704;9.908;2023-10-09T11:48:28;98513.09;;;22.94
27826;BMP280;15077;49.704;9.908;2023-10-09T11:51:15;98491.63;;;22.94
27826;BMP280;15077;49.704;9.908;2023-10-09T11:54:36;98487.06;;;22.87
27826;BMP280;15077;49.704;9.908;2023-10-09T11:57:05;98487.72;;;22.99
27826;BMP280;15077;49.704;9.908;2023-10-09T11:59:43;98491.56;;;23.05
27826;BMP280;15077;49.704;9.908;2023-10-09T12:02:22;98476.72;;;23.07
27826;BMP280;15077;49.704;9.908;2023-10-09T12:04:51;98473.19;;;23.08
27826;BMP280;15077;49.704;9.908;2023-10-09T12:07:33;98472.22;;;23.09
27826;BMP280;15077;49.704;9.908;2023-10-09T12:10:07;98478.09;;;23.11
27826;BMP280;15077;49.704;9.908;2023-10-09T12:12:54;98466.94;;;23.10
27826;BMP280;15077;49.704;9.908;2023-10-09T12:15:29;98479.47;;;23.15
27826;BMP280;15077;49.704;9.908;2023-10-09T12:18:18;98475.94;;;23.16
27826;BMP280;15077;49.704;9.908;2023-10-09T12:20:52;98467.91;;;23.19
27826;BMP280;15077;49.704;9.908;2023-10-09T12:23:28;98474.59;;;23.21
27826;BMP280;15077;49.704;9.908;2023-10-09T12:26:05;98475.16;;;23.25
27826;BMP280;15077;49.704;9.908;2023-10-09T12:28:44;98479.94;;;23.29
27826;BMP280;15077;49.704;9.908;2023-10-09T12:31:28;98477.09;;;23.32
27826;BMP280;15077;49.704;9.908;2023-10-09T12:33:59;98469.88;;;23.36
27826;BMP280;15077;49.704;9.908;2023-10-09T12:37:00;98475.19;;;23.34
27826;BMP280;15077;49.704;9.908;2023-10-09T12:39:32;98468.66;;;23.40
27826;BMP280;15077;49.704;9.908;2023-10-09T12:42:16;98458.06;;;23.42
27826;BMP280;15077;49.704;9.908;2023-10-09T12:44:45;98453.56;;;23.44
27826;BMP280;15077;49.704;9.908;2023-10-09T12:47:38;98452.88;;;23.42
27826;BMP280;15077;49.704;9.908;2023-10-09T12:50:10;98453.44;;;23.46
27826;BMP280;15077;49.704;9.908;2023-10-09T12:52:50;98460.94;;;23.49
27826;BMP280;15077;49.704;9.908;2023-10-09T12:55:19;98448.56;;;23.52
27826;BMP280;15077;49.704;9.908;2023-10-09T12:57:47;98453.47;;;23.55
27826;BMP280;15077;49.704;9.908;2023-10-09T13:00:48;98455.13;;;23.56
27826;BMP280;15077;49.704;9.908;2023-10-09T13:03:22;98452.94;;;23.61
27826;BMP280;15077;49.704;9.908;2023-10-09T13:06:23;98454.16;;;23.57
27826;BMP280;15077;49.704;9.908;2023-10-09T13:09:08;98449.16;;;23.65
27826;BMP280;15077;49.704;9.908;2023-10-09T13:11:43;98448.63;;;23.71
27826;BMP280;15077;49.704;9.908;2023-10-09T13:14:34;98445.78;;;23.74
27826;BMP280;15077;49.704;9.908;2023-10-09T13:20:03;98461.19;;;23.85
27826;BMP280;15077;49.704;9.908;2023-10-09T13:22:56;98453.81;;;23.90
27826;BMP280;15077;49.704;9.908;2023-10-09T13:25:26;98465.28;;;23.97
27826;BMP280;15077;49.704;9.908;2023-10-09T13:28:14;98477.28;;;23.98
27826;BMP280;15077;49.704;9.908;2023-10-09T13:30:46;98462.97;;;24.03
27826;BMP280;15077;49.704;9.908;2023-10-09T13:33:16;98462.56;;;24.08
27826;BMP280;15077;49.704;9.908;2023-10-09T13:35:53;98474.13;;;24.13
27826;BMP280;15077;49.704;9.908;2023-10-09T13:38:39;98466.66;;;24.20
27826;BMP280;15077;49.704;9.908;2023-10-09T13:41:12;98450.00;;;24.22
27826;BMP280;15077;49.704;9.908;2023-10-09T13:44:01;98441.00;;;24.26
27826;BMP280;15077;49.704;9.908;2023-10-09T13:46:35;98439.66;;;24.32
27826;BMP280;15077;49.704;9.908;2023-10-09T13:49:10;98430.00;;;24.34
27826;BMP280;15077;49.704;9.908;2023-10-09T13:51:40;98443.59;;;24.36
27826;BMP280;15077;49.704;9.908;2023-10-09T13:54:21;98440.75;;;24.39
27826;BMP280;15077;49.704;9.908;2023-10-09T13:56:54;98433.38;;;24.43
27826;BMP280;15077;49.704;9.908;2023-10-09T13:59:27;98431.31;;;24.47
27826;BMP280;15077;49.704;9.908;2023-10-09T14:01:54;98423.84;;;24.35
27826;BMP280;15077;49.704;9.908;2023-10-09T14:04:34;98421.63;;;24.58
27826;BMP280;15077;49.704;9.908;2023-10-09T14:07:22;98432.50;;;24.62
27826;BMP280;15077;49.704;9.908;2023-10-09T14:10:04;98439.34;;;24.63
27826;BMP280;15077;49.704;9.908;2023-10-09T14:12:44;98440.28;;;24.62
27826;BMP280;15077;49.704;9.908;2023-10-09T14:15:10;98438.41;;;24.64
27826;BMP280;15077;49.704;9.908;2023-10-09T14:17:43;98439.88;;;24.66
27826;BMP280;15077;49.704;9.908;2023-10-09T14:20:12;98437.00;;;24.69
27826;BMP280;15077;49.704;9.908;2023-10-09T14:23:00;98436.06;;;24.70
27826;BMP280;15077;49.704;9.908;2023-10-09T14:25:36;98434.13;;;24.72
27826;BMP280;15077;49.704;9.908;2023-10-09T14:28:19;98433.47;;;24.70
27826;BMP280;15077;49.704;9.908;2023-10-09T14:30:45;98434.13;;;24.72
27826;BMP280;15077;49.704;9.908;2023-10-09T14:33:14;98422.81;;;24.73
27826;BMP280;15077;49.704;9.908;2023-10-09T14:35:48;98441.75;;;24.74
27826;BMP280;15077;49.704;9.908;2023-10-09T14:38:14;98442.59;;;24.74
27826;BMP280;15077;49.704;9.908;2023-10-09T14:40:45;98437.28;;;24.76
27826;BMP280;15077;49.704;9.908;2023-10-09T14:43:11;98446.66;;;24.77
27826;BMP280;15077;49.704;9.908;2023-10-09T14:45:48;98442.47;;;24.76
27826;BMP280;15077;49.704;9.908;2023-10-09T14:48:17;98439.72;;;24.77
27826;BMP280;15077;49.704;9.908;2023-10-09T14:50:54;98445.84;;;24.76
27826;BMP280;15077;49.704;9.908;2023-10-09T14:53:22;98438.88;;;24.77
27826;BMP280;15077;49.704;9.908;2023-10-09T14:55:59;98451.03;;;24.76
27826;BMP280;15077;49.704;9.908;2023-10-09T14:58:29;98464.66;;;24.78
27826;BMP280;15077;49.704;9.908;2023-10-09T15:01:10;98467.13;;;24.80
27826;BMP280;15077;49.704;9.908;2023-10-09T15:03:37;98471.88;;;24.84
27826;BMP280;15077;49.704;9.908;2023-10-09T15:06:06;98470.13;;;24.85
27826;BMP280;15077;49.704;9.908;2023-10-09T15:08:37;98472.44;;;24.88
27826;BMP280;15077;49.704;9.908;2023-10-09T15:11:04;98476.69;;;24.89
27826;BMP280;15077;49.704;9.908;2023-10-09T15:13:31;98480.75;;;24.91
27826;BMP280;15077;49.704;9.908;2023-10-09T15:15:57;98483.34;;;24.91
27826;BMP280;15077;49.704;9.908;2023-10-09T15:18:40;98485.94;;;24.91
27826;BMP280;15077;49.704;9.908;2023-10-09T15:21:15;98497.81;;;24.93
27826;BMP280;15077;49.704;9.908;2023-10-09T15:24:01;98495.34;;;24.92
27826;BMP280;15077;49.704;9.908;2023-10-09T15:30:28;98496.56;;;24.97
27826;BMP280;15077;49.704;9.908;2023-10-09T15:32:56;98498.09;;;25.00
27826;BMP280;15077;49.704;9.908;2023-10-09T15:35:23;98499.44;;;25.04
27826;BMP280;15077;49.704;9.908;2023-10-09T15:37:51;98500.09;;;25.06
27826;BMP280;15077;49.704;9.908;2023-10-09T15:40:29;98490.44;;;25.08
27826;BMP280;15077;49.704;9.908;2023-10-09T15:43:08;98482.78;;;25.06
27826;BMP280;15077;49.704;9.908;2023-10-09T15:45:46;98473.88;;;25.09
27826;BMP280;15077;49.704;9.908;2023-10-09T15:48:32;98484.53;;;25.06
27826;BMP280;15077;49.704;9.908;2023-10-09T15:51:12;98500.81;;;25.08
27826;BMP280;15077;49.704;9.908;2023-10-09T15:53:46;98495.47;;;25.09
27826;BMP280;15077;49.704;9.908;2023-10-09T15:56:13;98494.63;;;25.09
27826;BMP280;15077;49.704;9.908;2023-10-09T15:58:55;98486.19;;;25.07